createdAt,value
2018-12-27T00:01:32.072Z,17.00
2018-12-27T00:03:58.189Z,14.98
2018-12-27T00:06:24.029Z,15.90
2018-12-27T00:08:53.028Z,17.13
2018-12-27T00:11:19.194Z,18.35
2018-12-27T00:13:48.256Z,16.37
2018-12-27T00:16:14.078Z,17.07
2018-12-27T00:18:40.541Z,15.90
2018-12-27T00:21:06.917Z,16.00
2018-12-27T00:23:35.658Z,16.52
2018-12-27T00:26:01.477Z,14.07
2018-12-27T00:28:30.573Z,13.30
2018-12-27T00:30:56.401Z,15.38
2018-12-27T00:33:25.260Z,16.57
2018-12-27T00:35:51.094Z,15.98
2018-12-27T00:38:17.247Z,14.07
2018-12-27T00:40:43.103Z,16.57
2018-12-27T00:43:09.231Z,17.20
2018-12-27T00:45:38.411Z,14.20
2018-12-27T00:48:04.288Z,19.42
2018-12-27T00:50:31.605Z,13.60
2018-12-27T00:52:57.471Z,19.37
2018-12-27T00:55:28.353Z,17.50
2018-12-27T00:57:54.246Z,18.05
2018-12-27T01:00:23.411Z,14.50
2018-12-27T01:02:50.720Z,16.73
2018-12-27T01:05:16.804Z,21.70
2018-12-27T01:07:42.907Z,18.32
2018-12-27T01:10:11.560Z,16.32
2018-12-27T01:12:37.393Z,18.00
2018-12-27T01:15:03.275Z,17.60
2018-12-27T01:17:29.384Z,19.10
2018-12-27T01:19:55.566Z,14.63
2018-12-27T01:22:24.374Z,14.33
2018-12-27T01:24:50.219Z,21.02
2018-12-27T01:27:18.870Z,19.43
2018-12-27T01:29:44.810Z,18.17
2018-12-27T01:32:13.469Z,16.63
2018-12-27T01:34:39.415Z,13.90
2018-12-27T01:37:06.920Z,15.27
2018-12-27T01:39:32.762Z,21.55
2018-12-27T01:42:01.360Z,16.93
2018-12-27T01:44:27.194Z,16.25
2018-12-27T01:46:57.804Z,13.73
2018-12-27T01:49:23.641Z,15.58
2018-12-27T01:51:49.470Z,13.07
2018-12-27T01:54:15.321Z,17.33
2018-12-27T01:56:41.190Z,14.10
2018-12-27T01:59:09.777Z,16.73
2018-12-27T02:01:35.645Z,14.40
2018-12-27T02:04:04.474Z,13.70
2018-12-27T02:06:30.615Z,15.80
2018-12-27T02:08:59.579Z,11.35
2018-12-27T02:11:25.416Z,15.40
2018-12-27T02:13:54.020Z,13.57
2018-12-27T02:16:20.223Z,12.82
2018-12-27T02:18:46.495Z,11.75
2018-12-27T02:21:12.277Z,14.35
2018-12-27T02:23:43.290Z,13.20
2018-12-27T02:26:09.152Z,12.47
2018-12-27T02:28:35.089Z,11.80
2018-12-27T02:31:00.953Z,13.10
2018-12-27T02:33:35.078Z,12.90
2018-12-27T02:35:54.551Z,15.03
2018-12-27T02:38:20.632Z,16.80
2018-12-27T02:40:47.749Z,15.45
2018-12-27T02:43:13.613Z,11.93
2018-12-27T02:45:44.035Z,15.63
2018-12-27T02:48:10.096Z,17.62
2018-12-27T02:50:38.752Z,16.57
2018-12-27T02:53:04.574Z,17.40
2018-12-27T02:55:31.517Z,15.77
2018-12-27T03:00:27.832Z,15.90
2018-12-27T03:02:53.965Z,15.33
2018-12-27T03:05:19.923Z,13.28
2018-12-27T03:07:45.747Z,14.47
2018-12-27T03:10:11.932Z,8.40
2018-12-27T03:12:40.856Z,11.85
2018-12-27T03:15:06.678Z,13.30
2018-12-27T03:17:35.572Z,14.60
2018-12-27T03:20:01.705Z,14.03
2018-12-27T03:22:27.544Z,14.65
2018-12-27T03:24:54.211Z,18.00
2018-12-27T03:27:22.516Z,14.85
2018-12-27T03:29:48.312Z,10.70
2018-12-27T03:32:18.907Z,14.57
2018-12-27T03:34:44.741Z,14.05
2018-12-27T03:37:13.736Z,9.77
2018-12-27T03:39:39.580Z,11.83
2018-12-27T03:42:05.717Z,13.73
2018-12-27T03:44:31.570Z,11.75
2018-12-27T03:46:57.720Z,16.57
2018-12-27T03:49:23.556Z,16.17
2018-12-27T03:51:49.385Z,12.53
2018-12-27T03:54:17.705Z,16.13
2018-12-27T03:56:43.966Z,16.15
2018-12-27T03:59:12.653Z,13.80
2018-12-27T04:01:38.507Z,13.65
2018-12-27T04:04:07.471Z,16.23
2018-12-27T04:06:33.617Z,15.08
2018-12-27T04:09:04.102Z,14.63
2018-12-27T04:11:29.973Z,18.10
2018-12-27T04:13:57.204Z,15.10
2018-12-27T04:16:23.389Z,14.63
2018-12-27T04:18:49.477Z,13.88
2018-12-27T04:21:15.331Z,19.30
2018-12-27T04:23:41.292Z,11.80
2018-12-27T04:26:10.642Z,16.90
2018-12-27T04:28:36.455Z,15.60
2018-12-27T04:31:03.649Z,15.10
2018-12-27T04:33:33.532Z,12.95
2018-12-27T04:35:59.734Z,16.40
2018-12-27T04:38:25.598Z,14.83
2018-12-27T04:40:54.521Z,14.60
2018-12-27T04:43:20.723Z,12.90
2018-12-27T04:45:49.384Z,13.65
2018-12-27T04:48:15.477Z,9.18
2018-12-27T04:50:44.375Z,14.68
2018-12-27T04:53:10.542Z,20.48
2018-12-27T04:55:36.762Z,14.35
2018-12-27T04:58:02.630Z,17.25
2018-12-27T05:00:28.487Z,18.00
2018-12-27T05:02:54.712Z,17.40
2018-12-27T05:05:20.538Z,14.45
2018-12-27T05:07:49.394Z,12.63
2018-12-27T05:10:15.203Z,14.47
2018-12-27T05:12:43.919Z,10.03
2018-12-27T05:15:09.758Z,11.75
2018-12-27T05:17:40.276Z,12.00
2018-12-27T05:20:06.086Z,10.65
2018-12-27T05:22:35.012Z,15.37
2018-12-27T05:25:00.832Z,11.35
2018-12-27T05:27:29.955Z,10.70
2018-12-27T05:29:55.786Z,10.80
2018-12-27T05:32:21.647Z,10.03
2018-12-27T05:34:47.547Z,18.17
2018-12-27T05:37:13.329Z,15.80
2018-12-27T05:39:42.346Z,19.87
2018-12-27T05:42:08.187Z,15.43
2018-12-27T05:44:34.290Z,18.30
2018-12-27T05:47:00.135Z,12.82
2018-12-27T05:49:29.061Z,17.47
2018-12-27T05:51:54.871Z,12.78
2018-12-27T05:54:23.766Z,14.60
2018-12-27T05:56:49.642Z,15.38
2018-12-27T05:59:17.982Z,13.00
2018-12-27T06:01:44.124Z,13.90
2018-12-27T06:04:15.079Z,12.65
2018-12-27T06:06:40.894Z,13.43
2018-12-27T06:09:06.973Z,14.50
2018-12-27T06:11:32.846Z,14.50
2018-12-27T06:13:58.688Z,14.60
2018-12-27T06:16:24.631Z,16.70
2018-12-27T06:18:50.721Z,17.30
2018-12-27T06:21:20.191Z,15.90
2018-12-27T06:23:46.025Z,18.67
2018-12-27T06:26:14.380Z,22.47
2018-12-27T06:28:40.492Z,17.23
2018-12-27T06:31:09.479Z,18.25
2018-12-27T06:33:36.042Z,17.37
2018-12-27T06:36:04.964Z,16.62
2018-12-27T06:38:30.821Z,20.15
2018-12-27T06:40:59.914Z,16.03
2018-12-27T06:43:25.784Z,15.43
2018-12-27T06:45:51.615Z,13.87
2018-12-27T06:48:17.757Z,13.80
2018-12-27T06:50:43.892Z,18.07
2018-12-27T06:53:12.821Z,17.17
2018-12-27T06:55:38.652Z,13.28
2018-12-27T06:58:04.630Z,16.63
2018-12-27T07:00:30.502Z,10.95
2018-12-27T07:02:59.789Z,11.93
2018-12-27T07:05:26.816Z,14.38
2018-12-27T07:07:56.175Z,20.20
2018-12-27T07:10:22.029Z,10.95
2018-12-27T07:12:50.984Z,20.70
2018-12-27T07:15:16.803Z,17.50
2018-12-27T07:17:45.450Z,18.07
2018-12-27T07:20:11.278Z,13.05
2018-12-27T07:22:37.356Z,18.03
2018-12-27T07:25:03.767Z,16.32
2018-12-27T07:27:29.575Z,17.48
2018-12-27T07:29:55.417Z,20.37
2018-12-27T07:32:21.570Z,21.33
2018-12-27T07:34:56.481Z,29.45
2018-12-27T07:37:20.052Z,26.07
2018-12-27T07:39:46.163Z,26.30
2018-12-27T07:42:12.233Z,36.85
2018-12-27T07:44:41.397Z,34.92
2018-12-27T07:47:07.522Z,24.82
2018-12-27T07:49:36.252Z,22.30
2018-12-27T07:52:02.126Z,20.48
2018-12-27T07:54:31.130Z,13.10
2018-12-27T07:56:57.000Z,16.75
2018-12-27T07:59:23.170Z,22.03
2018-12-27T08:01:49.005Z,22.70
2018-12-27T08:04:14.876Z,21.20
2018-12-27T08:06:41.035Z,17.67
2018-12-27T08:09:07.132Z,19.95
2018-12-27T08:11:36.040Z,30.52
2018-12-27T08:14:01.831Z,31.17
2018-12-27T08:16:30.505Z,31.50
2018-12-27T08:18:56.561Z,82.78
2018-12-27T08:21:25.419Z,101.27
2018-12-27T08:23:51.277Z,85.35
2018-12-27T08:26:19.921Z,83.20
2018-12-27T08:28:46.136Z,60.30
2018-12-27T08:31:17.079Z,89.45
2018-12-27T08:33:43.061Z,65.22
2018-12-27T08:36:09.175Z,221.30
2018-12-27T08:38:35.026Z,164.72
2018-12-27T08:41:01.009Z,100.93
2018-12-27T08:43:26.856Z,48.70
2018-12-27T08:45:52.987Z,29.03
2018-12-27T08:48:21.580Z,31.87
2018-12-27T08:50:48.239Z,32.38
2018-12-27T08:53:15.328Z,30.60
2018-12-27T08:55:41.176Z,30.95
2018-12-27T08:58:10.591Z,34.20
2018-12-27T09:00:37.793Z,32.03
2018-12-27T09:03:05.763Z,27.58
2018-12-27T09:05:31.998Z,28.47
2018-12-27T09:08:00.582Z,19.05
2018-12-27T09:10:26.447Z,23.75
2018-12-27T09:12:52.289Z,23.03
2018-12-27T09:15:18.140Z,28.40
2018-12-27T09:17:43.978Z,22.33
2018-12-27T09:20:12.965Z,21.27
2018-12-27T09:22:38.825Z,21.48
2018-12-27T09:25:07.895Z,56.90
2018-12-27T09:27:33.731Z,31.45
2018-12-27T09:30:01.002Z,24.97
2018-12-27T09:32:27.129Z,27.58
2018-12-27T09:34:55.596Z,27.62
2018-12-27T09:37:21.700Z,39.95
2018-12-27T09:39:52.471Z,27.65
2018-12-27T09:42:27.067Z,30.00
2018-12-27T09:44:53.289Z,27.95
2018-12-27T09:47:19.450Z,29.07
2018-12-27T09:49:45.310Z,32.78
2018-12-27T09:52:11.143Z,24.07
2018-12-27T09:54:37.284Z,22.17
2018-12-27T09:57:03.106Z,20.55
2018-12-27T09:59:28.943Z,26.90
2018-12-27T10:01:54.787Z,22.73
2018-12-27T10:04:27.776Z,25.50
2018-12-27T10:06:54.167Z,27.02
2018-12-27T10:09:19.977Z,20.77
2018-12-27T10:11:45.837Z,21.23
2018-12-27T10:14:11.660Z,25.60
2018-12-27T10:16:38.154Z,24.67
2018-12-27T10:19:03.959Z,19.37
2018-12-27T10:21:32.919Z,19.83
2018-12-27T10:23:58.739Z,23.00
2018-12-27T10:26:24.871Z,20.60
2018-12-27T10:28:50.779Z,19.52
2018-12-27T10:31:16.683Z,22.77
2018-12-27T10:33:42.540Z,19.60
2018-12-27T10:36:08.676Z,23.80
2018-12-27T10:38:37.599Z,20.35
2018-12-27T10:41:03.728Z,20.10
2018-12-27T10:43:32.434Z,24.07
2018-12-27T10:46:01.924Z,18.32
2018-12-27T10:48:28.130Z,19.07
2018-12-27T10:50:53.928Z,15.95
2018-12-27T10:53:21.412Z,13.30
2018-12-27T10:55:47.279Z,24.02
2018-12-27T10:58:15.900Z,21.50
2018-12-27T11:00:41.741Z,28.98
2018-12-27T11:03:07.608Z,28.10
2018-12-27T11:05:33.425Z,20.63
2018-12-27T11:07:59.286Z,26.53
2018-12-27T11:10:28.117Z,21.23
2018-12-27T11:12:53.981Z,25.12
2018-12-27T11:15:22.653Z,24.67
2018-12-27T11:17:48.498Z,23.52
2018-12-27T11:20:17.107Z,22.87
2018-12-27T11:22:42.953Z,19.57
2018-12-27T11:25:12.151Z,21.67
2018-12-27T11:27:38.252Z,20.72
2018-12-27T11:30:07.280Z,17.20
2018-12-27T11:32:33.510Z,16.73
2018-12-27T11:35:02.637Z,18.00
2018-12-27T11:37:28.470Z,20.37
2018-12-27T11:39:54.586Z,16.40
2018-12-27T11:42:20.430Z,16.52
2018-12-27T11:44:46.584Z,22.30
2018-12-27T11:47:13.525Z,19.23
2018-12-27T11:49:39.406Z,15.85
2018-12-27T11:52:08.274Z,18.30
2018-12-27T11:54:34.363Z,20.72
2018-12-27T11:57:03.328Z,19.45
2018-12-27T11:59:29.890Z,23.42
2018-12-27T12:01:57.349Z,18.90
2018-12-27T12:04:23.173Z,15.63
2018-12-27T12:06:51.431Z,14.23
2018-12-27T12:09:17.301Z,16.75
2018-12-27T12:11:45.643Z,14.37
2018-12-27T12:14:11.572Z,15.28
2018-12-27T12:16:37.380Z,16.50
2018-12-27T12:19:03.269Z,13.20
2018-12-27T12:21:29.092Z,10.73
2018-12-27T12:23:58.312Z,13.70
2018-12-27T12:26:24.172Z,16.42
2018-12-27T12:28:53.525Z,15.57
2018-12-27T12:31:19.662Z,16.40
2018-12-27T12:33:48.227Z,13.50
2018-12-27T12:36:14.067Z,11.60
2018-12-27T12:38:42.137Z,14.97
2018-12-27T12:41:08.192Z,17.10
2018-12-27T12:43:38.612Z,13.70
2018-12-27T12:46:04.460Z,15.10
2018-12-27T12:48:31.498Z,14.50
2018-12-27T12:50:57.323Z,23.27
2018-12-27T12:53:23.444Z,14.97
2018-12-27T12:55:49.562Z,14.43
2018-12-27T12:58:16.652Z,14.53
2018-12-27T13:00:44.162Z,16.45
2018-12-27T13:03:10.018Z,12.75
2018-12-27T13:05:38.862Z,14.50
2018-12-27T13:08:04.974Z,13.75
2018-12-27T13:10:33.561Z,14.47
2018-12-27T13:12:59.701Z,13.98
2018-12-27T13:15:28.576Z,15.30
2018-12-27T13:17:54.692Z,10.88
2018-12-27T13:20:23.540Z,11.95
2018-12-27T13:22:49.360Z,14.13
2018-12-27T13:25:17.977Z,12.53
2018-12-27T13:27:44.103Z,16.75
2018-12-27T13:30:10.034Z,14.38
2018-12-27T13:32:36.135Z,16.57
2018-12-27T13:35:02.343Z,22.17
2018-12-27T13:37:31.014Z,26.10
2018-12-27T13:39:57.135Z,21.15
2018-12-27T13:42:26.300Z,23.85
2018-12-27T13:44:52.172Z,25.48
2018-12-27T13:47:18.286Z,21.37
2018-12-27T13:49:44.134Z,23.57
2018-12-27T13:52:12.648Z,24.20
2018-12-27T13:54:38.453Z,25.68
2018-12-27T13:57:09.241Z,22.33
2018-12-27T13:59:35.064Z,26.50
2018-12-27T14:02:03.689Z,26.80
2018-12-27T14:04:29.594Z,28.40
2018-12-27T14:06:55.449Z,26.90
2018-12-27T14:09:21.299Z,26.13
2018-12-27T14:11:50.484Z,26.13
2018-12-27T14:14:16.732Z,25.15
2018-12-27T14:16:42.577Z,27.30
2018-12-27T14:19:08.522Z,28.53
2018-12-27T14:21:35.067Z,27.30
2018-12-27T14:24:03.791Z,26.05
2018-12-27T14:26:29.614Z,31.27
2018-12-27T14:29:00.113Z,31.17
2018-12-27T14:31:25.971Z,36.15
2018-12-27T14:33:54.575Z,31.87
2018-12-27T14:36:20.704Z,36.20
2018-12-27T14:38:49.897Z,35.45
2018-12-27T14:41:15.716Z,37.60
2018-12-27T14:43:41.572Z,35.63
2018-12-27T14:46:07.660Z,32.90
2018-12-27T14:48:33.516Z,33.63
2018-12-27T14:50:59.344Z,38.80
2018-12-27T14:53:25.604Z,35.50
2018-12-27T14:55:54.490Z,32.28
2018-12-27T14:58:20.577Z,28.47
2018-12-27T15:00:48.617Z,31.55
2018-12-27T15:03:14.449Z,31.27
2018-12-27T15:05:43.419Z,36.23
2018-12-27T15:08:09.924Z,32.15
2018-12-27T15:10:37.940Z,36.20
2018-12-27T15:13:03.781Z,31.48
2018-12-27T15:15:35.574Z,37.27
2018-12-27T15:18:01.409Z,30.20
2018-12-27T15:20:27.240Z,30.73
2018-12-27T15:22:53.078Z,29.93
2018-12-27T15:25:18.924Z,34.10
2018-12-27T15:27:44.759Z,35.57
2018-12-27T15:30:30.740Z,45.77
2018-12-27T15:32:56.815Z,35.73
2018-12-27T15:35:22.666Z,38.90
2018-12-27T15:37:48.785Z,40.33
2018-12-27T15:40:14.628Z,36.25
2018-12-27T15:42:40.710Z,38.17
2018-12-27T15:45:06.854Z,36.17
2018-12-27T15:47:32.722Z,41.02
2018-12-27T15:49:58.678Z,37.07
2018-12-27T15:52:26.290Z,34.37
2018-12-27T15:54:52.139Z,37.40
2018-12-27T15:57:17.987Z,33.23
2018-12-27T15:59:44.125Z,32.10
2018-12-27T16:02:10.040Z,34.50
2018-12-27T16:04:35.874Z,31.50
2018-12-27T16:07:02.263Z,38.93
2018-12-27T16:09:28.141Z,34.85
2018-12-27T16:11:55.023Z,44.17
2018-12-27T16:14:20.918Z,37.48
2018-12-27T16:16:46.777Z,37.20
2018-12-27T16:19:13.899Z,34.13
2018-12-27T16:21:40.971Z,37.03
2018-12-27T16:24:10.174Z,38.63
2018-12-27T16:26:36.293Z,34.03
2018-12-27T16:29:03.701Z,34.25
2018-12-27T16:31:29.541Z,38.65
2018-12-27T16:33:55.408Z,37.60
2018-12-27T16:36:21.239Z,38.50
2018-12-27T16:38:47.034Z,36.60
2018-12-27T16:41:15.163Z,38.47
2018-12-27T16:43:41.007Z,39.15
2018-12-27T16:46:09.328Z,36.23
2018-12-27T16:48:35.160Z,41.88
2018-12-27T16:51:01.220Z,42.33
2018-12-27T16:53:27.024Z,40.55
2018-12-27T16:55:52.842Z,41.13
2018-12-27T16:58:23.718Z,35.07
2018-12-27T17:00:49.581Z,32.80
2018-12-27T17:03:18.198Z,39.00
2018-12-27T17:05:44.302Z,36.77
2018-12-27T17:08:13.480Z,36.50
2018-12-27T17:10:39.563Z,32.80
2018-12-27T17:13:08.362Z,33.92
2018-12-27T17:15:34.185Z,39.83
2018-12-27T17:18:03.223Z,41.43
2018-12-27T17:20:29.183Z,32.53
2018-12-27T17:22:55.160Z,32.60
2018-12-27T17:25:21.263Z,38.83
2018-12-27T17:27:50.416Z,32.90
2018-12-27T17:30:16.282Z,31.17
2018-12-27T17:32:44.854Z,36.37
2018-12-27T17:35:10.718Z,38.25
2018-12-27T17:37:40.876Z,38.20
2018-12-27T17:40:06.689Z,45.10
2018-12-27T17:42:35.344Z,41.63
2018-12-27T17:45:01.190Z,47.80
2018-12-27T17:47:27.345Z,41.53
2018-12-27T17:49:53.207Z,43.25
2018-12-27T17:52:19.016Z,37.73
2018-12-27T17:54:47.743Z,41.63
2018-12-27T17:57:13.599Z,45.85
2018-12-27T17:59:40.851Z,39.87
2018-12-27T18:02:06.721Z,36.65
2018-12-27T18:04:35.737Z,38.93
2018-12-27T18:07:01.564Z,38.20
2018-12-27T18:09:30.433Z,37.27
2018-12-27T18:11:56.278Z,36.65
2018-12-27T18:14:25.406Z,41.17
2018-12-27T18:16:51.537Z,33.90
2018-12-27T18:19:20.135Z,39.80
2018-12-27T18:21:45.981Z,30.82
2018-12-27T18:24:12.090Z,32.50
2018-12-27T18:26:37.952Z,23.70
2018-12-27T18:29:03.791Z,28.13
2018-12-27T18:31:32.723Z,25.20
2018-12-27T18:33:58.907Z,23.75
2018-12-27T18:36:25.866Z,24.55
2018-12-27T18:38:52.023Z,28.40
2018-12-27T18:41:22.923Z,23.80
2018-12-27T18:43:48.766Z,22.93
2018-12-27T18:46:17.364Z,20.97
2018-12-27T18:48:43.173Z,27.20
2018-12-27T18:51:11.788Z,26.50
2018-12-27T18:53:37.872Z,26.42
2018-12-27T18:56:06.529Z,26.57
2018-12-27T18:58:32.280Z,34.43
2018-12-27T19:00:58.164Z,31.40
2018-12-27T19:03:24.320Z,35.53
2018-12-27T19:05:50.528Z,39.75
2018-12-27T19:08:16.375Z,37.90
2018-12-27T19:10:42.220Z,37.40
2018-12-27T19:13:12.738Z,33.80
2018-12-27T19:15:45.072Z,39.60
2018-12-27T19:18:23.529Z,42.78
2018-12-27T19:20:51.974Z,28.20
2018-12-27T19:23:17.823Z,26.77
2018-12-27T19:25:43.686Z,27.93
2018-12-27T19:28:09.510Z,31.23
2018-12-27T19:30:35.702Z,31.00
2018-12-27T19:33:01.570Z,26.77
2018-12-27T19:35:27.390Z,27.33
2018-12-27T19:37:53.570Z,27.20
2018-12-27T19:40:19.734Z,23.07
2018-12-27T19:42:45.855Z,28.05
2018-12-27T19:45:12.009Z,27.52
2018-12-27T19:47:38.154Z,25.08
2018-12-27T19:50:04.128Z,21.70
2018-12-27T19:52:29.959Z,30.10
2018-12-27T19:54:56.069Z,25.87
2018-12-27T19:57:22.299Z,28.87
2018-12-27T19:59:52.767Z,26.70
2018-12-27T20:02:18.854Z,35.40
2018-12-27T20:04:44.992Z,34.65
2018-12-27T20:07:10.864Z,38.83
2018-12-27T20:09:36.689Z,37.60
2018-12-27T20:12:02.547Z,38.63
2018-12-27T20:14:28.376Z,39.70
2018-12-27T20:16:54.592Z,44.70
2018-12-27T20:19:20.486Z,35.03
2018-12-27T20:21:49.028Z,49.40
2018-12-27T20:24:15.092Z,46.65
2018-12-27T20:26:43.967Z,37.80
2018-12-27T20:29:09.830Z,44.38
2018-12-27T20:31:38.421Z,41.10
2018-12-27T20:34:07.595Z,30.88
2018-12-27T20:36:33.571Z,26.00
2018-12-27T20:38:59.670Z,30.77
2018-12-27T20:41:28.889Z,26.87
2018-12-27T20:43:55.018Z,30.15
2018-12-27T20:46:20.994Z,33.63
2018-12-27T20:48:47.130Z,38.90
2018-12-27T20:51:12.984Z,50.95
2018-12-27T20:53:38.824Z,51.23
2018-12-27T20:56:04.771Z,58.87
2018-12-27T20:58:33.633Z,51.23
2018-12-27T21:00:59.465Z,56.25
2018-12-27T21:03:27.226Z,64.00
2018-12-27T21:05:53.075Z,69.00
2018-12-27T21:08:21.933Z,56.80
2018-12-27T21:10:47.755Z,74.97
2018-12-27T21:13:16.913Z,63.93
2018-12-27T21:15:42.749Z,67.00
2018-12-27T21:18:13.077Z,59.10
2018-12-27T21:20:38.932Z,70.03
2018-12-27T21:23:07.974Z,78.97
2018-12-27T21:25:33.801Z,76.50
2018-12-27T21:27:59.647Z,81.30
2018-12-27T21:30:25.730Z,64.80
2018-12-27T21:32:51.885Z,70.28
2018-12-27T21:35:17.763Z,64.92
2018-12-27T21:37:43.604Z,71.33
2018-12-27T21:40:14.667Z,58.57
2018-12-27T21:42:40.641Z,72.03
2018-12-27T21:45:09.521Z,72.63
2018-12-27T21:47:35.378Z,63.52
2018-12-27T21:50:04.385Z,98.67
2018-12-27T21:52:30.543Z,81.80
2018-12-27T21:54:56.684Z,83.52
2018-12-27T21:57:22.810Z,80.05
2018-12-27T21:59:51.484Z,70.95
2018-12-27T22:02:17.447Z,67.95
2018-12-27T22:04:43.613Z,69.60
2018-12-27T22:07:09.700Z,57.95
2018-12-27T22:09:35.789Z,50.83
2018-12-27T22:12:04.553Z,52.88
2018-12-27T22:14:30.360Z,43.23
2018-12-27T22:16:59.358Z,48.97
2018-12-27T22:19:25.492Z,61.48
2018-12-27T22:21:54.120Z,46.28
2018-12-27T22:24:19.945Z,49.23
2018-12-27T22:26:47.422Z,41.07
2018-12-27T22:29:13.242Z,43.83
2018-12-27T22:31:41.733Z,52.17
2018-12-27T22:34:07.561Z,55.58
2018-12-27T22:36:38.150Z,45.47
2018-12-27T22:39:06.104Z,46.83
2018-12-27T22:41:31.909Z,40.23
2018-12-27T22:43:57.756Z,44.97
2018-12-27T22:46:23.692Z,27.93
2018-12-27T22:48:49.816Z,39.30
2018-12-27T22:51:16.026Z,34.85
2018-12-27T22:53:45.702Z,37.85
2018-12-27T22:56:11.829Z,29.27
2018-12-27T22:58:38.078Z,32.73
2018-12-27T23:01:04.307Z,34.08
2018-12-27T23:03:33.684Z,31.87
2018-12-27T23:05:59.818Z,33.18
2018-12-27T23:08:28.687Z,35.38
2018-12-27T23:10:54.625Z,35.23
2018-12-27T23:13:21.950Z,37.80
2018-12-27T23:15:47.926Z,42.88
2018-12-27T23:18:13.749Z,33.20
2018-12-27T23:20:39.587Z,38.03
2018-12-27T23:23:11.318Z,34.03
2018-12-27T23:25:36.397Z,24.63
2018-12-27T23:28:02.351Z,39.80
2018-12-27T23:30:28.478Z,31.57
2018-12-27T23:32:57.897Z,34.85
2018-12-27T23:35:24.026Z,39.78
2018-12-27T23:37:49.853Z,39.83
2018-12-27T23:40:18.870Z,38.00
2018-12-27T23:42:44.715Z,37.33
2018-12-27T23:45:13.283Z,41.43
2018-12-27T23:47:39.123Z,37.78
2018-12-27T23:50:08.044Z,39.97
2018-12-27T23:52:34.197Z,41.05
2018-12-27T23:55:00.348Z,44.63
2018-12-27T23:57:26.165Z,44.10
2018-12-27T23:59:52.107Z,39.90
